sensor_id;sensor_type;location;lat;lon;timestamp;P1;durP1;ratioP1;P2;durP2;ratioP2
37753;SDS011;23596;52.520;13.464;2023-02-02T00:01:40;31.05;;;4.32;;
37753;SDS011;23596;52.520;13.464;2023-02-02T00:04:09;27.80;;;4.85;;
37753;SDS011;23596;52.520;13.464;2023-02-02T00:06:43;46.63;;;4.82;;
37753;SDS011;23596;52.520;13.464;2023-02-02T00:09:10;46.33;;;4.82;;
37753;SDS011;23596;52.520;13.464;2023-02-02T00:11:38;32.60;;;5.20;;
37753;SDS011;23596;52.520;13.464;2023-02-02T00:14:04;31.98;;;4.93;;
37753;SDS011;23596;52.520;13.464;2023-02-02T00:18:56;30.87;;;4.47;;
37753;SDS011;23596;52.520;13.464;2023-02-02T00:21:23;26.40;;;4.05;;
37753;SDS011;23596;52.520;13.464;2023-02-02T00:23:49;41.88;;;4.50;;
37753;SDS011;23596;52.520;13.464;2023-02-02T00:26:15;37.03;;;4.22;;
37753;SDS011;23596;52.520;13.464;2023-02-02T00:28:42;40.97;;;4.60;;
37753;SDS011;23596;52.520;13.464;2023-02-02T00:31:07;27.13;;;3.50;;
37753;SDS011;23596;52.520;13.464;2023-02-02T00:33:33;45.13;;;5.30;;
37753;SDS011;23596;52.520;13.464;2023-02-02T00:35:59;37.27;;;4.23;;
37753;SDS011;23596;52.520;13.464;2023-02-02T00:38:25;45.73;;;4.37;;
37753;SDS011;23596;52.520;13.464;2023-02-02T00:40:50;46.83;;;5.57;;
37753;SDS011;23596;52.520;13.464;2023-02-02T00:43:16;43.33;;;4.67;;
37753;SDS011;23596;52.520;13.464;2023-02-02T00:45:41;43.23;;;4.27;;
37753;SDS011;23596;52.520;13.464;2023-02-02T00:48:07;41.70;;;4.43;;
37753;SDS011;23596;52.520;13.464;2023-02-02T00:50:34;37.58;;;6.28;;
37753;SDS011;23596;52.520;13.464;2023-02-02T00:53:00;33.72;;;3.88;;
37753;SDS011;23596;52.520;13.464;2023-02-02T00:55:26;27.53;;;4.00;;
37753;SDS011;23596;52.520;13.464;2023-02-02T00:57:52;38.60;;;5.23;;
37753;SDS011;23596;52.520;13.464;2023-02-02T01:00:19;31.33;;;4.00;;
37753;SDS011;23596;52.520;13.464;2023-02-02T01:03:19;45.80;;;5.15;;
37753;SDS011;23596;52.520;13.464;2023-02-02T01:05:45;36.47;;;4.63;;
37753;SDS011;23596;52.520;13.464;2023-02-02T01:08:10;33.13;;;4.23;;
37753;SDS011;23596;52.520;13.464;2023-02-02T01:10:36;44.73;;;5.83;;
37753;SDS011;23596;52.520;13.464;2023-02-02T01:13:02;37.20;;;4.67;;
37753;SDS011;23596;52.520;13.464;2023-02-02T01:15:28;47.80;;;4.45;;
37753;SDS011;23596;52.520;13.464;2023-02-02T01:17:54;48.45;;;4.45;;
37753;SDS011;23596;52.520;13.464;2023-02-02T01:20:21;30.40;;;5.05;;
37753;SDS011;23596;52.520;13.464;2023-02-02T01:22:48;36.67;;;5.15;;
37753;SDS011;23596;52.520;13.464;2023-02-02T01:25:14;42.28;;;4.15;;
37753;SDS011;23596;52.520;13.464;2023-02-02T01:27:40;39.63;;;5.07;;
37753;SDS011;23596;52.520;13.464;2023-02-02T01:30:05;40.33;;;6.97;;
37753;SDS011;23596;52.520;13.464;2023-02-02T01:32:31;41.42;;;5.32;;
37753;SDS011;23596;52.520;13.464;2023-02-02T01:34:57;42.03;;;4.83;;
37753;SDS011;23596;52.520;13.464;2023-02-02T01:37:23;60.23;;;5.70;;
37753;SDS011;23596;52.520;13.464;2023-02-02T01:39:48;53.00;;;5.53;;
37753;SDS011;23596;52.520;13.464;2023-02-02T01:42:15;51.23;;;4.80;;
37753;SDS011;23596;52.520;13.464;2023-02-02T01:47:17;45.22;;;4.82;;
37753;SDS011;23596;52.520;13.464;2023-02-02T01:49:46;44.85;;;5.18;;
37753;SDS011;23596;52.520;13.464;2023-02-02T01:52:12;51.05;;;6.30;;
37753;SDS011;23596;52.520;13.464;2023-02-02T01:54:45;52.20;;;5.55;;
37753;SDS011;23596;52.520;13.464;2023-02-02T01:57:20;44.88;;;4.38;;
37753;SDS011;23596;52.520;13.464;2023-02-02T02:00:00;58.85;;;5.10;;
37753;SDS011;23596;52.520;13.464;2023-02-02T02:02:29;58.35;;;5.43;;
37753;SDS011;23596;52.520;13.464;2023-02-02T02:04:55;34.50;;;4.22;;
37753;SDS011;23596;52.520;13.464;2023-02-02T02:07:23;42.10;;;4.45;;
37753;SDS011;23596;52.520;13.464;2023-02-02T02:09:49;52.33;;;6.03;;
37753;SDS011;23596;52.520;13.464;2023-02-02T02:12:14;53.10;;;5.70;;
37753;SDS011;23596;52.520;13.464;2023-02-02T02:14:41;41.10;;;5.10;;
37753;SDS011;23596;52.520;13.464;2023-02-02T02:20:42;52.83;;;5.13;;
37753;SDS011;23596;52.520;13.464;2023-02-02T02:38:11;35.88;;;4.43;;
37753;SDS011;23596;52.520;13.464;2023-02-02T02:41:02;55.20;;;5.35;;
37753;SDS011;23596;52.520;13.464;2023-02-02T02:43:34;52.22;;;5.90;;
37753;SDS011;23596;52.520;13.464;2023-02-02T02:46:06;37.55;;;3.95;;
37753;SDS011;23596;52.520;13.464;2023-02-02T02:48:32;35.05;;;4.13;;
37753;SDS011;23596;52.520;13.464;2023-02-02T02:51:08;41.88;;;5.28;;
37753;SDS011;23596;52.520;13.464;2023-02-02T02:53:53;47.75;;;5.70;;
37753;SDS011;23596;52.520;13.464;2023-02-02T02:56:29;37.50;;;5.78;;
37753;SDS011;23596;52.520;13.464;2023-02-02T02:59:05;36.15;;;4.18;;
37753;SDS011;23596;52.520;13.464;2023-02-02T03:01:56;29.95;;;3.75;;
37753;SDS011;23596;52.520;13.464;2023-02-02T03:05:11;34.58;;;3.75;;
37753;SDS011;23596;52.520;13.464;2023-02-02T03:07:33;41.60;;;3.42;;
37753;SDS011;23596;52.520;13.464;2023-02-02T03:10:02;33.95;;;3.95;;
37753;SDS011;23596;52.520;13.464;2023-02-02T03:12:31;24.40;;;3.55;;
37753;SDS011;23596;52.520;13.464;2023-02-02T03:14:57;38.00;;;4.55;;
37753;SDS011;23596;52.520;13.464;2023-02-02T03:17:23;43.50;;;4.03;;
37753;SDS011;23596;52.520;13.464;2023-02-02T03:19:50;25.77;;;3.47;;
37753;SDS011;23596;52.520;13.464;2023-02-02T03:22:16;39.90;;;3.60;;
37753;SDS011;23596;52.520;13.464;2023-02-02T03:24:41;30.70;;;3.70;;
37753;SDS011;23596;52.520;13.464;2023-02-02T03:27:07;33.93;;;3.57;;
37753;SDS011;23596;52.520;13.464;2023-02-02T03:29:33;29.30;;;3.60;;
37753;SDS011;23596;52.520;13.464;2023-02-02T03:31:59;40.88;;;4.20;;
37753;SDS011;23596;52.520;13.464;2023-02-02T03:34:25;29.03;;;3.60;;
37753;SDS011;23596;52.520;13.464;2023-02-02T03:36:51;22.70;;;3.27;;
37753;SDS011;23596;52.520;13.464;2023-02-02T03:39:16;26.57;;;3.23;;
37753;SDS011;23596;52.520;13.464;2023-02-02T03:41:42;31.03;;;3.37;;
37753;SDS011;23596;52.520;13.464;2023-02-02T03:44:07;25.83;;;3.67;;
37753;SDS011;23596;52.520;13.464;2023-02-02T03:46:33;29.77;;;3.43;;
37753;SDS011;23596;52.520;13.464;2023-02-02T03:48:59;30.90;;;3.23;;
37753;SDS011;23596;52.520;13.464;2023-02-02T03:51:24;25.40;;;3.17;;
37753;SDS011;23596;52.520;13.464;2023-02-02T03:53:50;33.00;;;3.70;;
37753;SDS011;23596;52.520;13.464;2023-02-02T03:56:16;23.80;;;3.47;;
37753;SDS011;23596;52.520;13.464;2023-02-02T03:58:43;29.35;;;3.50;;
37753;SDS011;23596;52.520;13.464;2023-02-02T04:01:11;15.30;;;2.42;;
37753;SDS011;23596;52.520;13.464;2023-02-02T04:03:37;24.50;;;3.20;;
37753;SDS011;23596;52.520;13.464;2023-02-02T04:06:03;20.37;;;2.63;;
37753;SDS011;23596;52.520;13.464;2023-02-02T04:08:29;27.60;;;3.87;;
37753;SDS011;23596;52.520;13.464;2023-02-02T04:10:55;32.60;;;3.78;;
37753;SDS011;23596;52.520;13.464;2023-02-02T04:13:21;22.40;;;2.80;;
37753;SDS011;23596;52.520;13.464;2023-02-02T04:15:47;30.90;;;3.03;;
37753;SDS011;23596;52.520;13.464;2023-02-02T04:18:20;23.52;;;2.72;;
37753;SDS011;23596;52.520;13.464;2023-02-02T04:20:45;19.97;;;3.23;;
37753;SDS011;23596;52.520;13.464;2023-02-02T04:23:11;29.13;;;3.17;;
37753;SDS011;23596;52.520;13.464;2023-02-02T04:25:36;17.40;;;2.30;;
37753;SDS011;23596;52.520;13.464;2023-02-02T04:28:02;20.60;;;2.60;;
37753;SDS011;23596;52.520;13.464;2023-02-02T04:30:28;30.40;;;2.87;;
37753;SDS011;23596;52.520;13.464;2023-02-02T04:32:54;21.97;;;2.53;;
37753;SDS011;23596;52.520;13.464;2023-02-02T04:35:20;24.02;;;3.97;;
37753;SDS011;23596;52.520;13.464;2023-02-02T04:37:45;35.23;;;3.20;;
37753;SDS011;23596;52.520;13.464;2023-02-02T04:40:11;35.30;;;2.80;;
37753;SDS011;23596;52.520;13.464;2023-02-02T04:42:37;19.95;;;3.17;;
37753;SDS011;23596;52.520;13.464;2023-02-02T04:45:03;23.97;;;3.40;;
37753;SDS011;23596;52.520;13.464;2023-02-02T04:47:29;23.52;;;2.95;;
37753;SDS011;23596;52.520;13.464;2023-02-02T04:49:54;19.90;;;2.03;;
37753;SDS011;23596;52.520;13.464;2023-02-02T04:52:20;32.87;;;2.50;;
37753;SDS011;23596;52.520;13.464;2023-02-02T04:54:45;29.87;;;3.27;;
37753;SDS011;23596;52.520;13.464;2023-02-02T04:57:11;30.10;;;3.37;;
37753;SDS011;23596;52.520;13.464;2023-02-02T04:59:37;13.33;;;2.10;;
37753;SDS011;23596;52.520;13.464;2023-02-02T05:02:02;21.53;;;3.20;;
37753;SDS011;23596;52.520;13.464;2023-02-02T05:04:28;16.83;;;3.00;;
37753;SDS011;23596;52.520;13.464;2023-02-02T05:06:53;16.50;;;3.00;;
37753;SDS011;23596;52.520;13.464;2023-02-02T05:09:19;30.90;;;3.50;;
37753;SDS011;23596;52.520;13.464;2023-02-02T05:11:45;28.20;;;4.37;;
37753;SDS011;23596;52.520;13.464;2023-02-02T05:14:10;30.10;;;3.53;;
37753;SDS011;23596;52.520;13.464;2023-02-02T05:16:36;16.50;;;2.40;;
37753;SDS011;23596;52.520;13.464;2023-02-02T05:19:03;24.95;;;3.15;;
37753;SDS011;23596;52.520;13.464;2023-02-02T05:21:29;25.10;;;3.40;;
37753;SDS011;23596;52.520;13.464;2023-02-02T05:23:56;33.60;;;3.53;;
37753;SDS011;23596;52.520;13.464;2023-02-02T05:26:24;38.10;;;3.70;;
37753;SDS011;23596;52.520;13.464;2023-02-02T05:28:50;30.55;;;3.60;;
37753;SDS011;23596;52.520;13.464;2023-02-02T05:31:16;22.87;;;2.77;;
37753;SDS011;23596;52.520;13.464;2023-02-02T05:33:42;19.25;;;3.10;;
37753;SDS011;23596;52.520;13.464;2023-02-02T05:36:07;22.60;;;4.07;;
37753;SDS011;23596;52.520;13.464;2023-02-02T05:38:34;21.55;;;2.88;;
37753;SDS011;23596;52.520;13.464;2023-02-02T05:41:00;31.33;;;3.47;;
37753;SDS011;23596;52.520;13.464;2023-02-02T05:43:26;23.48;;;3.00;;
37753;SDS011;23596;52.520;13.464;2023-02-02T05:45:53;31.50;;;3.08;;
37753;SDS011;23596;52.520;13.464;2023-02-02T05:48:19;29.73;;;3.73;;
37753;SDS011;23596;52.520;13.464;2023-02-02T05:53:42;26.10;;;3.37;;
37753;SDS011;23596;52.520;13.464;2023-02-02T05:56:09;38.33;;;3.22;;
37753;SDS011;23596;52.520;13.464;2023-02-02T05:58:35;24.98;;;4.05;;
37753;SDS011;23596;52.520;13.464;2023-02-02T06:01:00;19.47;;;3.00;;
37753;SDS011;23596;52.520;13.464;2023-02-02T06:03:26;33.90;;;2.63;;
37753;SDS011;23596;52.520;13.464;2023-02-02T06:05:52;20.97;;;3.77;;
37753;SDS011;23596;52.520;13.464;2023-02-02T06:08:17;33.53;;;3.23;;
37753;SDS011;23596;52.520;13.464;2023-02-02T06:10:43;19.33;;;2.80;;
37753;SDS011;23596;52.520;13.464;2023-02-02T06:13:09;35.40;;;4.23;;
37753;SDS011;23596;52.520;13.464;2023-02-02T06:15:35;23.07;;;2.87;;
37753;SDS011;23596;52.520;13.464;2023-02-02T06:18:01;17.45;;;2.17;;
37753;SDS011;23596;52.520;13.464;2023-02-02T06:20:27;21.63;;;3.00;;
37753;SDS011;23596;52.520;13.464;2023-02-02T06:22:53;18.90;;;2.92;;
37753;SDS011;23596;52.520;13.464;2023-02-02T06:25:19;23.70;;;2.83;;
37753;SDS011;23596;52.520;13.464;2023-02-02T06:27:44;31.50;;;3.47;;
37753;SDS011;23596;52.520;13.464;2023-02-02T06:30:10;18.83;;;2.87;;
37753;SDS011;23596;52.520;13.464;2023-02-02T06:32:37;28.38;;;3.25;;
37753;SDS011;23596;52.520;13.464;2023-02-02T06:35:03;26.60;;;3.50;;
37753;SDS011;23596;52.520;13.464;2023-02-02T06:37:29;29.05;;;3.80;;
37753;SDS011;23596;52.520;13.464;2023-02-02T06:39:55;25.37;;;3.57;;
37753;SDS011;23596;52.520;13.464;2023-02-02T06:42:20;34.53;;;3.33;;
37753;SDS011;23596;52.520;13.464;2023-02-02T06:44:46;27.50;;;3.00;;
37753;SDS011;23596;52.520;13.464;2023-02-02T06:47:12;31.80;;;3.23;;
37753;SDS011;23596;52.520;13.464;2023-02-02T06:49:38;32.00;;;2.90;;
37753;SDS011;23596;52.520;13.464;2023-02-02T06:52:03;37.97;;;3.33;;
37753;SDS011;23596;52.520;13.464;2023-02-02T06:54:29;29.03;;;3.10;;
37753;SDS011;23596;52.520;13.464;2023-02-02T06:56:54;36.07;;;3.70;;
37753;SDS011;23596;52.520;13.464;2023-02-02T06:59:20;37.47;;;3.63;;
37753;SDS011;23596;52.520;13.464;2023-02-02T07:01:49;25.57;;;4.17;;
37753;SDS011;23596;52.520;13.464;2023-02-02T07:04:17;28.73;;;3.95;;
37753;SDS011;23596;52.520;13.464;2023-02-02T07:06:44;32.97;;;3.67;;
37753;SDS011;23596;52.520;13.464;2023-02-02T07:09:10;52.00;;;3.70;;
37753;SDS011;23596;52.520;13.464;2023-02-02T07:11:35;23.07;;;2.73;;
37753;SDS011;23596;52.520;13.464;2023-02-02T07:14:01;34.80;;;2.87;;
37753;SDS011;23596;52.520;13.464;2023-02-02T07:16:27;31.40;;;4.35;;
37753;SDS011;23596;52.520;13.464;2023-02-02T07:18:53;30.97;;;3.07;;
37753;SDS011;23596;52.520;13.464;2023-02-02T07:21:20;16.33;;;3.13;;
37753;SDS011;23596;52.520;13.464;2023-02-02T07:23:47;22.33;;;3.28;;
37753;SDS011;23596;52.520;13.464;2023-02-02T07:26:14;24.92;;;2.40;;
37753;SDS011;23596;52.520;13.464;2023-02-02T07:28:40;28.38;;;2.90;;
37753;SDS011;23596;52.520;13.464;2023-02-02T07:31:14;30.75;;;4.28;;
37753;SDS011;23596;52.520;13.464;2023-02-02T07:33:45;29.48;;;3.13;;
37753;SDS011;23596;52.520;13.464;2023-02-02T07:36:12;22.90;;;3.13;;
37753;SDS011;23596;52.520;13.464;2023-02-02T07:38:46;19.13;;;3.10;;
37753;SDS011;23596;52.520;13.464;2023-02-02T07:41:14;23.33;;;2.75;;
37753;SDS011;23596;52.520;13.464;2023-02-02T07:43:40;34.83;;;2.60;;
37753;SDS011;23596;52.520;13.464;2023-02-02T07:46:06;23.43;;;3.07;;
37753;SDS011;23596;52.520;13.464;2023-02-02T07:48:34;21.55;;;2.42;;
37753;SDS011;23596;52.520;13.464;2023-02-02T07:53:27;29.75;;;3.97;;
37753;SDS011;23596;52.520;13.464;2023-02-02T07:55:53;33.27;;;3.20;;
37753;SDS011;23596;52.520;13.464;2023-02-02T07:58:28;20.17;;;3.10;;
37753;SDS011;23596;52.520;13.464;2023-02-02T08:00:54;54.40;;;5.27;;
37753;SDS011;23596;52.520;13.464;2023-02-02T08:03:23;27.33;;;2.78;;
37753;SDS011;23596;52.520;13.464;2023-02-02T08:05:49;26.03;;;2.70;;
37753;SDS011;23596;52.520;13.464;2023-02-02T08:08:15;18.63;;;3.27;;
37753;SDS011;23596;52.520;13.464;2023-02-02T08:10:46;31.80;;;3.37;;
37753;SDS011;23596;52.520;13.464;2023-02-02T08:13:15;32.13;;;3.33;;
37753;SDS011;23596;52.520;13.464;2023-02-02T08:15:40;22.40;;;2.90;;
37753;SDS011;23596;52.520;13.464;2023-02-02T08:18:06;24.63;;;3.33;;
37753;SDS011;23596;52.520;13.464;2023-02-02T08:20:32;33.93;;;3.07;;
37753;SDS011;23596;52.520;13.464;2023-02-02T08:22:57;33.13;;;3.83;;
37753;SDS011;23596;52.520;13.464;2023-02-02T08:25:23;38.33;;;4.13;;
37753;SDS011;23596;52.520;13.464;2023-02-02T08:27:52;19.93;;;3.10;;
37753;SDS011;23596;52.520;13.464;2023-02-02T08:30:23;23.20;;;3.90;;
37753;SDS011;23596;52.520;13.464;2023-02-02T08:32:49;28.00;;;2.78;;
37753;SDS011;23596;52.520;13.464;2023-02-02T08:35:14;19.07;;;3.30;;
37753;SDS011;23596;52.520;13.464;2023-02-02T08:37:41;27.73;;;3.28;;
37753;SDS011;23596;52.520;13.464;2023-02-02T08:40:07;31.30;;;3.87;;
37753;SDS011;23596;52.520;13.464;2023-02-02T08:42:33;26.55;;;3.53;;
37753;SDS011;23596;52.520;13.464;2023-02-02T08:44:58;34.10;;;3.57;;
37753;SDS011;23596;52.520;13.464;2023-02-02T08:47:26;24.33;;;4.05;;
37753;SDS011;23596;52.520;13.464;2023-02-02T08:49:53;28.40;;;3.30;;
37753;SDS011;23596;52.520;13.464;2023-02-02T08:52:19;22.43;;;3.27;;
37753;SDS011;23596;52.520;13.464;2023-02-02T08:54:44;24.27;;;2.87;;
37753;SDS011;23596;52.520;13.464;2023-02-02T08:57:10;26.37;;;3.17;;
37753;SDS011;23596;52.520;13.464;2023-02-02T08:59:35;32.90;;;3.77;;
37753;SDS011;23596;52.520;13.464;2023-02-02T09:02:01;19.77;;;3.30;;
37753;SDS011;23596;52.520;13.464;2023-02-02T09:04:27;37.07;;;4.57;;
37753;SDS011;23596;52.520;13.464;2023-02-02T09:06:52;15.90;;;2.80;;
37753;SDS011;23596;52.520;13.464;2023-02-02T09:09:18;20.20;;;3.20;;
37753;SDS011;23596;52.520;13.464;2023-02-02T09:11:44;28.37;;;2.77;;
37753;SDS011;23596;52.520;13.464;2023-02-02T09:14:10;27.73;;;4.17;;
37753;SDS011;23596;52.520;13.464;2023-02-02T09:16:36;23.58;;;3.05;;
37753;SDS011;23596;52.520;13.464;2023-02-02T09:19:02;26.07;;;3.53;;
37753;SDS011;23596;52.520;13.464;2023-02-02T09:21:28;21.73;;;2.30;;
37753;SDS011;23596;52.520;13.464;2023-02-02T09:23:54;35.93;;;4.43;;
37753;SDS011;23596;52.520;13.464;2023-02-02T09:26:20;30.73;;;3.53;;
37753;SDS011;23596;52.520;13.464;2023-02-02T09:28:52;24.27;;;2.80;;
37753;SDS011;23596;52.520;13.464;2023-02-02T09:31:26;26.30;;;4.03;;
37753;SDS011;23596;52.520;13.464;2023-02-02T09:33:52;34.03;;;3.28;;
37753;SDS011;23596;52.520;13.464;2023-02-02T09:36:19;22.87;;;2.43;;
37753;SDS011;23596;52.520;13.464;2023-02-02T09:38:46;25.40;;;3.15;;
37753;SDS011;23596;52.520;13.464;2023-02-02T09:52:34;23.23;;;3.55;;
37753;SDS011;23596;52.520;13.464;2023-02-02T10:04:24;17.70;;;2.53;;
37753;SDS011;23596;52.520;13.464;2023-02-02T10:06:44;10.45;;;1.73;;
37753;SDS011;23596;52.520;13.464;2023-02-02T10:09:33;27.73;;;2.85;;
37753;SDS011;23596;52.520;13.464;2023-02-02T10:17:50;19.75;;;2.67;;
37753;SDS011;23596;52.520;13.464;2023-02-02T10:22:49;26.02;;;2.92;;
37753;SDS011;23596;52.520;13.464;2023-02-02T10:27:46;16.45;;;2.90;;
37753;SDS011;23596;52.520;13.464;2023-02-02T10:30:44;34.15;;;2.90;;
37753;SDS011;23596;52.520;13.464;2023-02-02T10:33:30;19.58;;;2.70;;
37753;SDS011;23596;52.520;13.464;2023-02-02T10:41:48;20.42;;;2.28;;
37753;SDS011;23596;52.520;13.464;2023-02-02T10:45:01;16.27;;;2.30;;
37753;SDS011;23596;52.520;13.464;2023-02-02T10:47:34;21.88;;;2.38;;
37753;SDS011;23596;52.520;13.464;2023-02-02T10:50:02;22.08;;;2.60;;
37753;SDS011;23596;52.520;13.464;2023-02-02T10:52:44;20.75;;;2.47;;
37753;SDS011;23596;52.520;13.464;2023-02-02T10:57:45;14.33;;;2.03;;
37753;SDS011;23596;52.520;13.464;2023-02-02T11:00:22;14.60;;;2.05;;
37753;SDS011;23596;52.520;13.464;2023-02-02T11:02:54;18.90;;;2.00;;
37753;SDS011;23596;52.520;13.464;2023-02-02T11:05:23;15.77;;;2.10;;
37753;SDS011;23596;52.520;13.464;2023-02-02T11:08:21;19.27;;;2.08;;
37753;SDS011;23596;52.520;13.464;2023-02-02T11:10:54;25.20;;;2.45;;
37753;SDS011;23596;52.520;13.464;2023-02-02T11:15:59;19.40;;;2.45;;
37753;SDS011;23596;52.520;13.464;2023-02-02T11:18:39;18.48;;;2.10;;
37753;SDS011;23596;52.520;13.464;2023-02-02T11:21:19;14.70;;;2.00;;
37753;SDS011;23596;52.520;13.464;2023-02-02T11:23:51;16.50;;;1.65;;
37753;SDS011;23596;52.520;13.464;2023-02-02T11:26:23;27.02;;;2.63;;
37753;SDS011;23596;52.520;13.464;2023-02-02T11:28:50;24.10;;;2.92;;
37753;SDS011;23596;52.520;13.464;2023-02-02T11:31:32;16.83;;;2.33;;
37753;SDS011;23596;52.520;13.464;2023-02-02T11:34:09;21.70;;;3.17;;
37753;SDS011;23596;52.520;13.464;2023-02-02T11:39:26;8.23;;;1.80;;
37753;SDS011;23596;52.520;13.464;2023-02-02T11:44:40;18.90;;;2.00;;
37753;SDS011;23596;52.520;13.464;2023-02-02T11:47:17;12.07;;;1.52;;
37753;SDS011;23596;52.520;13.464;2023-02-02T11:49:57;20.30;;;2.45;;
37753;SDS011;23596;52.520;13.464;2023-02-02T11:52:26;23.55;;;2.20;;
37753;SDS011;23596;52.520;13.464;2023-02-02T11:54:55;10.93;;;1.85;;
37753;SDS011;23596;52.520;13.464;2023-02-02T11:57:24;20.73;;;2.53;;
37753;SDS011;23596;52.520;13.464;2023-02-02T12:00:14;14.30;;;2.63;;
37753;SDS011;23596;52.520;13.464;2023-02-02T12:02:50;15.13;;;1.80;;
37753;SDS011;23596;52.520;13.464;2023-02-02T12:07:44;17.42;;;2.97;;
37753;SDS011;23596;52.520;13.464;2023-02-02T12:16:17;11.43;;;1.58;;
37753;SDS011;23596;52.520;13.464;2023-02-02T12:18:39;11.82;;;1.83;;
37753;SDS011;23596;52.520;13.464;2023-02-02T12:21:39;18.30;;;2.15;;
37753;SDS011;23596;52.520;13.464;2023-02-02T12:38:05;13.70;;;1.80;;
37753;SDS011;23596;52.520;13.464;2023-02-02T12:49:13;13.30;;;1.90;;
37753;SDS011;23596;52.520;13.464;2023-02-02T12:52:09;11.93;;;1.67;;
37753;SDS011;23596;52.520;13.464;2023-02-02T13:11:53;12.80;;;1.92;;
37753;SDS011;23596;52.520;13.464;2023-02-02T13:17:29;18.75;;;1.85;;
37753;SDS011;23596;52.520;13.464;2023-02-02T13:20:04;11.25;;;2.00;;
37753;SDS011;23596;52.520;13.464;2023-02-02T13:22:41;15.77;;;2.80;;
37753;SDS011;23596;52.520;13.464;2023-02-02T13:25:29;15.68;;;2.50;;
37753;SDS011;23596;52.520;13.464;2023-02-02T13:27:59;12.65;;;1.73;;
37753;SDS011;23596;52.520;13.464;2023-02-02T13:30:35;13.75;;;2.50;;
37753;SDS011;23596;52.520;13.464;2023-02-02T13:33:11;16.33;;;2.45;;
37753;SDS011;23596;52.520;13.464;2023-02-02T13:35:48;16.63;;;1.85;;
37753;SDS011;23596;52.520;13.464;2023-02-02T13:38:23;12.80;;;1.70;;
37753;SDS011;23596;52.520;13.464;2023-02-02T13:40:51;12.95;;;1.27;;
37753;SDS011;23596;52.520;13.464;2023-02-02T13:51:42;9.32;;;1.08;;
37753;SDS011;23596;52.520;13.464;2023-02-02T13:57:44;10.48;;;2.15;;
37753;SDS011;23596;52.520;13.464;2023-02-02T14:02:58;7.00;;;1.42;;
37753;SDS011;23596;52.520;13.464;2023-02-02T14:06:05;7.07;;;1.30;;
37753;SDS011;23596;52.520;13.464;2023-02-02T14:08:36;10.43;;;1.42;;
37753;SDS011;23596;52.520;13.464;2023-02-02T14:11:21;10.55;;;1.63;;
37753;SDS011;23596;52.520;13.464;2023-02-02T14:13:56;5.63;;;1.40;;
37753;SDS011;23596;52.520;13.464;2023-02-02T14:24:43;15.32;;;1.63;;
37753;SDS011;23596;52.520;13.464;2023-02-02T14:37:38;9.88;;;1.52;;
37753;SDS011;23596;52.520;13.464;2023-02-02T14:45:45;9.82;;;1.25;;
37753;SDS011;23596;52.520;13.464;2023-02-02T14:48:18;11.05;;;2.00;;
37753;SDS011;23596;52.520;13.464;2023-02-02T14:50:53;14.77;;;1.92;;
37753;SDS011;23596;52.520;13.464;2023-02-02T14:53:27;10.75;;;2.25;;
37753;SDS011;23596;52.520;13.464;2023-02-02T15:01:02;7.78;;;1.60;;
37753;SDS011;23596;52.520;13.464;2023-02-02T15:03:45;11.02;;;1.65;;
37753;SDS011;23596;52.520;13.464;2023-02-02T15:06:31;15.40;;;1.80;;
37753;SDS011;23596;52.520;13.464;2023-02-02T15:22:47;10.18;;;1.65;;
37753;SDS011;23596;52.520;13.464;2023-02-02T15:25:32;7.45;;;1.77;;
37753;SDS011;23596;52.520;13.464;2023-02-02T15:30:57;6.47;;;1.70;;
37753;SDS011;23596;52.520;13.464;2023-02-02T15:33:46;10.63;;;1.33;;
37753;SDS011;23596;52.520;13.464;2023-02-02T15:36:22;13.98;;;1.27;;
37753;SDS011;23596;52.520;13.464;2023-02-02T15:38:56;9.23;;;1.77;;
37753;SDS011;23596;52.520;13.464;2023-02-02T15:41:32;9.30;;;1.85;;
37753;SDS011;23596;52.520;13.464;2023-02-02T15:44:01;7.85;;;1.73;;
37753;SDS011;23596;52.520;13.464;2023-02-02T15:46:41;11.45;;;1.05;;
37753;SDS011;23596;52.520;13.464;2023-02-02T15:51:49;10.30;;;2.08;;
37753;SDS011;23596;52.520;13.464;2023-02-02T15:56:54;7.20;;;2.00;;
37753;SDS011;23596;52.520;13.464;2023-02-02T15:59:22;16.40;;;1.85;;
37753;SDS011;23596;52.520;13.464;2023-02-02T16:02:03;14.57;;;1.88;;
37753;SDS011;23596;52.520;13.464;2023-02-02T16:04:41;5.22;;;1.50;;
37753;SDS011;23596;52.520;13.464;2023-02-02T16:07:10;6.63;;;1.73;;
37753;SDS011;23596;52.520;13.464;2023-02-02T16:09:38;4.32;;;1.20;;
37753;SDS011;23596;52.520;13.464;2023-02-02T16:12:07;9.70;;;1.48;;
37753;SDS011;23596;52.520;13.464;2023-02-02T16:14:43;8.25;;;1.42;;
37753;SDS011;23596;52.520;13.464;2023-02-02T16:17:27;9.57;;;1.75;;
37753;SDS011;23596;52.520;13.464;2023-02-02T16:20:03;8.38;;;1.60;;
37753;SDS011;23596;52.520;13.464;2023-02-02T16:22:34;7.03;;;1.40;;
37753;SDS011;23596;52.520;13.464;2023-02-02T16:25:02;8.65;;;1.45;;
37753;SDS011;23596;52.520;13.464;2023-02-02T16:27:33;11.77;;;2.13;;
37753;SDS011;23596;52.520;13.464;2023-02-02T16:30:00;9.93;;;1.73;;
37753;SDS011;23596;52.520;13.464;2023-02-02T16:34:57;13.80;;;1.80;;
37753;SDS011;23596;52.520;13.464;2023-02-02T16:39:55;15.32;;;2.22;;
37753;SDS011;23596;52.520;13.464;2023-02-02T16:42:39;7.55;;;1.67;;
37753;SDS011;23596;52.520;13.464;2023-02-02T16:45:06;14.47;;;1.57;;
37753;SDS011;23596;52.520;13.464;2023-02-02T16:47:52;10.55;;;1.65;;
37753;SDS011;23596;52.520;13.464;2023-02-02T16:55:27;15.45;;;2.03;;
37753;SDS011;23596;52.520;13.464;2023-02-02T16:57:55;13.95;;;2.25;;
37753;SDS011;23596;52.520;13.464;2023-02-02T17:00:23;13.98;;;2.47;;
37753;SDS011;23596;52.520;13.464;2023-02-02T17:02:51;14.80;;;2.20;;
37753;SDS011;23596;52.520;13.464;2023-02-02T17:05:26;11.65;;;3.08;;
37753;SDS011;23596;52.520;13.464;2023-02-02T17:12:59;8.25;;;2.20;;
37753;SDS011;23596;52.520;13.464;2023-02-02T17:15:27;11.77;;;2.67;;
37753;SDS011;23596;52.520;13.464;2023-02-02T17:17:56;11.55;;;2.10;;
37753;SDS011;23596;52.520;13.464;2023-02-02T17:20:22;10.45;;;1.85;;
37753;SDS011;23596;52.520;13.464;2023-02-02T17:22:49;9.07;;;2.00;;
37753;SDS011;23596;52.520;13.464;2023-02-02T17:25:18;12.63;;;2.35;;
37753;SDS011;23596;52.520;13.464;2023-02-02T17:27:50;8.93;;;1.80;;
37753;SDS011;23596;52.520;13.464;2023-02-02T17:30:17;13.90;;;1.88;;
37753;SDS011;23596;52.520;13.464;2023-02-02T17:32:43;6.40;;;2.05;;
37753;SDS011;23596;52.520;13.464;2023-02-02T17:35:17;15.07;;;2.47;;
37753;SDS011;23596;52.520;13.464;2023-02-02T17:37:45;10.25;;;2.33;;
37753;SDS011;23596;52.520;13.464;2023-02-02T17:40:15;15.23;;;2.63;;
37753;SDS011;23596;52.520;13.464;2023-02-02T17:42:42;6.35;;;1.98;;
37753;SDS011;23596;52.520;13.464;2023-02-02T17:45:17;9.13;;;1.98;;
37753;SDS011;23596;52.520;13.464;2023-02-02T17:48:00;7.90;;;1.90;;
37753;SDS011;23596;52.520;13.464;2023-02-02T17:50:27;13.40;;;2.42;;
37753;SDS011;23596;52.520;13.464;2023-02-02T17:52:53;12.25;;;2.38;;
37753;SDS011;23596;52.520;13.464;2023-02-02T17:55:21;10.50;;;2.07;;
37753;SDS011;23596;52.520;13.464;2023-02-02T17:57:51;10.60;;;2.65;;
37753;SDS011;23596;52.520;13.464;2023-02-02T18:00:18;6.38;;;2.38;;
37753;SDS011;23596;52.520;13.464;2023-02-02T18:02:47;18.67;;;3.55;;
37753;SDS011;23596;52.520;13.464;2023-02-02T18:05:15;12.43;;;3.15;;
37753;SDS011;23596;52.520;13.464;2023-02-02T18:07:41;14.68;;;3.33;;